createdAt,value
2023-03-31T00:00:54.404Z,100.00
2023-03-31T00:03:22.128Z,100.00
2023-03-31T00:05:53.543Z,100.00
2023-03-31T00:08:21.375Z,100.00
2023-03-31T00:10:49.170Z,100.00
2023-03-31T00:13:16.661Z,100.00
2023-03-31T00:15:44.112Z,100.00
2023-03-31T00:18:11.495Z,100.00
2023-03-31T00:20:38.848Z,100.00
2023-03-31T00:23:10.830Z,100.00
2023-03-31T00:25:41.994Z,100.00
2023-03-31T00:28:09.449Z,100.00
2023-03-31T00:30:36.802Z,100.00
2023-03-31T00:33:04.776Z,100.00
2023-03-31T00:35:32.355Z,100.00
2023-03-31T00:37:59.850Z,100.00
2023-03-31T00:40:27.240Z,100.00
2023-03-31T00:42:54.586Z,100.00
2023-03-31T00:45:27.674Z,100.00
2023-03-31T00:48:10.264Z,99.20
2023-03-31T00:51:00.304Z,98.20
2023-03-31T00:53:30.789Z,97.22
2023-03-31T00:56:08.050Z,96.33
2023-03-31T00:58:35.783Z,95.56
2023-03-31T01:01:04.362Z,94.71
2023-03-31T01:03:33.585Z,94.54
2023-03-31T01:06:13.207Z,93.60
2023-03-31T01:08:42.089Z,93.26
2023-03-31T01:11:12.680Z,93.39
2023-03-31T01:13:41.827Z,94.17
2023-03-31T01:16:09.453Z,94.87
2023-03-31T01:18:36.980Z,95.97
2023-03-31T01:21:40.988Z,95.14
2023-03-31T01:24:11.111Z,95.68
2023-03-31T01:26:49.826Z,96.58
2023-03-31T01:29:40.404Z,96.84
2023-03-31T01:32:20.054Z,97.54
2023-03-31T01:35:19.637Z,97.92
2023-03-31T01:38:05.154Z,97.13
2023-03-31T01:41:00.107Z,97.58
2023-03-31T01:43:42.575Z,96.77
2023-03-31T01:46:29.480Z,95.15
2023-03-31T01:49:31.127Z,94.82
2023-03-31T01:51:58.420Z,94.52
2023-03-31T01:54:37.833Z,93.83
2023-03-31T01:57:16.728Z,93.52
2023-03-31T02:00:03.904Z,94.20
2023-03-31T02:02:43.246Z,93.55
2023-03-31T02:05:17.231Z,92.40
2023-03-31T02:07:52.943Z,91.87
2023-03-31T02:10:22.121Z,92.02
2023-03-31T02:12:50.397Z,91.60
2023-03-31T02:15:27.200Z,92.85
2023-03-31T02:17:58.156Z,94.32
2023-03-31T02:20:27.601Z,96.26
2023-03-31T02:22:57.102Z,95.85
2023-03-31T02:25:31.539Z,96.10
2023-03-31T02:28:04.385Z,96.53
2023-03-31T02:31:04.050Z,96.44
2023-03-31T02:33:31.464Z,96.92
2023-03-31T02:36:00.080Z,95.93
2023-03-31T02:38:27.741Z,94.87
2023-03-31T02:40:55.220Z,94.75
2023-03-31T02:43:22.773Z,94.58
2023-03-31T02:45:51.812Z,94.46
2023-03-31T02:48:28.071Z,94.21
2023-03-31T02:51:22.052Z,95.55
2023-03-31T02:54:16.152Z,96.47
2023-03-31T02:57:20.798Z,97.54
2023-03-31T03:00:09.616Z,99.05
2023-03-31T03:03:19.866Z,99.47
2023-03-31T03:09:34.753Z,100.00
2023-03-31T03:12:17.841Z,100.00
2023-03-31T03:15:27.210Z,100.00
2023-03-31T03:17:55.994Z,100.00
2023-03-31T03:20:23.798Z,100.00
2023-03-31T03:22:51.326Z,100.00
2023-03-31T03:25:20.494Z,100.00
2023-03-31T03:27:48.273Z,100.00
2023-03-31T03:30:15.429Z,100.00
2023-03-31T03:32:43.269Z,100.00
2023-03-31T03:35:11.147Z,100.00
2023-03-31T03:37:38.626Z,100.00
2023-03-31T03:40:07.046Z,100.00
2023-03-31T03:42:35.540Z,100.00
2023-03-31T03:45:03.487Z,100.00
2023-03-31T03:47:30.951Z,100.00
2023-03-31T03:49:58.315Z,100.00
2023-03-31T03:52:25.723Z,100.00
2023-03-31T03:54:53.071Z,100.00
2023-03-31T03:57:20.488Z,100.00
2023-03-31T03:59:47.555Z,100.00
2023-03-31T04:02:14.935Z,100.00
2023-03-31T04:04:42.382Z,100.00
2023-03-31T04:07:09.796Z,100.00
2023-03-31T04:09:37.174Z,100.00
2023-03-31T04:12:04.806Z,100.00
2023-03-31T04:14:32.131Z,100.00
2023-03-31T04:16:59.055Z,100.00
2023-03-31T04:19:27.607Z,100.00
2023-03-31T04:21:59.065Z,100.00
2023-03-31T04:24:30.811Z,100.00
2023-03-31T04:27:00.022Z,100.00
2023-03-31T04:29:27.502Z,100.00
2023-03-31T04:31:59.097Z,100.00
2023-03-31T04:34:35.172Z,100.00
2023-03-31T04:37:03.544Z,100.00
2023-03-31T04:39:31.222Z,100.00
2023-03-31T04:42:00.678Z,100.00
2023-03-31T04:44:28.458Z,100.00
2023-03-31T04:46:56.017Z,100.00
2023-03-31T04:49:23.758Z,100.00
2023-03-31T04:51:51.194Z,100.00
2023-03-31T04:54:18.626Z,100.00
2023-03-31T04:56:46.045Z,100.00
2023-03-31T04:59:13.587Z,100.00
2023-03-31T05:01:45.192Z,100.00
2023-03-31T05:04:12.903Z,100.00
2023-03-31T05:06:40.275Z,100.00
2023-03-31T05:09:10.748Z,100.00
2023-03-31T05:11:38.382Z,100.00
2023-03-31T05:14:06.161Z,100.00
2023-03-31T05:16:33.655Z,100.00
2023-03-31T05:19:01.044Z,100.00
2023-03-31T05:21:30.651Z,100.00
2023-03-31T05:23:58.603Z,100.00
2023-03-31T05:26:26.592Z,100.00
2023-03-31T05:28:54.316Z,100.00
2023-03-31T05:31:22.085Z,100.00
2023-03-31T05:33:49.502Z,100.00
2023-03-31T05:36:18.079Z,100.00
2023-03-31T05:38:46.074Z,100.00
2023-03-31T05:41:13.458Z,100.00
2023-03-31T05:43:41.153Z,100.00
2023-03-31T05:46:08.961Z,100.00
2023-03-31T05:48:38.066Z,100.00
2023-03-31T05:51:05.806Z,100.00
2023-03-31T05:53:34.271Z,100.00
2023-03-31T05:56:05.655Z,100.00
2023-03-31T05:58:36.269Z,100.00
2023-03-31T06:01:08.444Z,100.00
2023-03-31T06:03:39.012Z,100.00
2023-03-31T06:06:08.275Z,100.00
2023-03-31T06:08:36.683Z,100.00
2023-03-31T06:11:09.595Z,100.00
2023-03-31T06:13:38.185Z,100.00
2023-03-31T06:16:06.564Z,100.00
2023-03-31T06:18:36.023Z,100.00
2023-03-31T06:21:04.190Z,100.00
2023-03-31T06:23:31.939Z,100.00
2023-03-31T06:26:06.497Z,100.00
2023-03-31T06:28:34.982Z,100.00
2023-03-31T06:31:08.863Z,100.00
2023-03-31T06:33:36.666Z,100.00
2023-03-31T06:36:05.711Z,100.00
2023-03-31T06:38:34.733Z,100.00
2023-03-31T06:41:02.486Z,100.00
2023-03-31T06:43:30.138Z,100.00
2023-03-31T06:45:57.623Z,100.00
2023-03-31T06:48:25.707Z,100.00
2023-03-31T06:50:59.758Z,100.00
2023-03-31T06:53:27.511Z,100.00
2023-03-31T06:55:54.906Z,100.00
2023-03-31T06:58:22.646Z,100.00
2023-03-31T07:00:50.369Z,100.00
2023-03-31T07:03:19.254Z,100.00
2023-03-31T07:05:53.856Z,100.00
2023-03-31T07:08:21.823Z,100.00
2023-03-31T07:10:53.676Z,100.00
2023-03-31T07:13:21.308Z,100.00
2023-03-31T07:15:49.242Z,100.00
2023-03-31T07:18:17.499Z,100.00
2023-03-31T07:20:48.594Z,100.00
2023-03-31T07:23:16.248Z,100.00
2023-03-31T07:25:43.710Z,100.00
2023-03-31T07:28:11.100Z,100.00
2023-03-31T07:30:38.533Z,100.00
2023-03-31T07:33:06.473Z,100.00
2023-03-31T07:35:33.988Z,100.00
2023-03-31T07:38:01.323Z,100.00
2023-03-31T07:40:29.878Z,100.00
2023-03-31T07:42:57.229Z,100.00
2023-03-31T07:45:26.532Z,100.00
2023-03-31T07:47:54.492Z,100.00
2023-03-31T07:50:22.895Z,100.00
2023-03-31T07:52:50.750Z,100.00
2023-03-31T07:55:20.102Z,100.00
2023-03-31T07:57:47.812Z,100.00
2023-03-31T08:00:16.727Z,100.00
2023-03-31T08:02:44.658Z,100.00
2023-03-31T08:05:16.529Z,100.00
2023-03-31T08:07:46.907Z,100.00
2023-03-31T08:10:20.884Z,100.00
2023-03-31T08:12:48.281Z,100.00
2023-03-31T08:15:16.602Z,100.00
2023-03-31T08:17:44.092Z,100.00
2023-03-31T08:20:11.964Z,100.00
2023-03-31T08:22:40.228Z,100.00
2023-03-31T08:25:08.477Z,100.00
2023-03-31T08:27:37.852Z,100.00
2023-03-31T08:30:10.134Z,100.00
2023-03-31T08:32:37.865Z,100.00
2023-03-31T08:35:05.788Z,100.00
2023-03-31T08:37:33.319Z,100.00
2023-03-31T08:40:00.806Z,100.00
2023-03-31T08:42:41.918Z,100.00
2023-03-31T08:45:24.816Z,100.00
2023-03-31T08:48:04.632Z,100.00
2023-03-31T08:50:48.748Z,100.00
2023-03-31T08:53:19.869Z,100.00
2023-03-31T08:55:51.259Z,100.00
2023-03-31T08:58:50.534Z,100.00
2023-03-31T09:02:03.840Z,100.00
2023-03-31T09:04:33.630Z,100.00
2023-03-31T09:07:14.600Z,100.00
2023-03-31T09:09:45.232Z,100.00
2023-03-31T09:12:29.679Z,100.00
2023-03-31T09:15:16.166Z,100.00
2023-03-31T09:17:47.971Z,100.00
2023-03-31T09:20:21.656Z,100.00
2023-03-31T09:22:58.321Z,100.00
2023-03-31T09:25:36.346Z,100.00
2023-03-31T09:28:14.360Z,100.00
2023-03-31T09:30:42.731Z,100.00
2023-03-31T09:33:28.361Z,100.00
2023-03-31T09:35:56.591Z,100.00
2023-03-31T09:38:24.048Z,100.00
2023-03-31T09:40:51.563Z,100.00
2023-03-31T09:43:32.950Z,100.00
2023-03-31T09:46:08.750Z,100.00
2023-03-31T09:48:38.927Z,100.00
2023-03-31T09:51:18.445Z,100.00
2023-03-31T09:53:51.770Z,100.00
2023-03-31T09:56:41.914Z,100.00
2023-03-31T09:59:37.095Z,100.00
2023-03-31T10:02:34.811Z,100.00
2023-03-31T10:05:03.292Z,100.00
2023-03-31T10:07:31.055Z,100.00
2023-03-31T10:09:58.481Z,100.00
2023-03-31T10:12:29.437Z,97.51
2023-03-31T10:15:18.401Z,95.99
2023-03-31T10:17:55.032Z,97.21
2023-03-31T10:20:51.369Z,97.41
2023-03-31T10:23:25.521Z,97.94
2023-03-31T10:25:53.038Z,98.83
2023-03-31T10:28:21.992Z,98.74
2023-03-31T10:30:53.176Z,96.17
2023-03-31T10:33:25.406Z,95.91
2023-03-31T10:36:26.990Z,93.99
2023-03-31T10:38:55.013Z,93.68
2023-03-31T10:41:30.281Z,97.42
2023-03-31T10:44:03.870Z,100.00
2023-03-31T10:46:51.339Z,100.00
2023-03-31T10:49:28.268Z,100.00
2023-03-31T10:51:58.870Z,100.00
2023-03-31T10:54:27.167Z,100.00
2023-03-31T10:57:05.737Z,100.00
2023-03-31T11:00:33.085Z,100.00
2023-03-31T11:03:37.183Z,99.91
2023-03-31T11:06:04.755Z,96.67
2023-03-31T11:08:52.783Z,97.04
2023-03-31T11:11:50.940Z,95.29
2023-03-31T11:14:21.207Z,96.29
2023-03-31T11:17:12.630Z,100.00
2023-03-31T11:19:44.536Z,100.00
2023-03-31T11:22:28.811Z,100.00
2023-03-31T11:25:30.783Z,100.00
2023-03-31T11:28:28.495Z,100.00
2023-03-31T11:31:03.522Z,98.08
2023-03-31T11:33:52.109Z,98.14
2023-03-31T11:36:22.576Z,92.23
2023-03-31T11:39:27.220Z,91.19
2023-03-31T11:42:00.850Z,89.89
2023-03-31T11:44:40.652Z,90.56
2023-03-31T11:47:14.878Z,90.13
2023-03-31T11:50:11.643Z,91.96
2023-03-31T11:52:44.462Z,95.25
2023-03-31T11:55:21.890Z,98.84
2023-03-31T11:58:10.969Z,96.62
2023-03-31T12:00:57.204Z,95.52
2023-03-31T12:03:38.424Z,94.63
2023-03-31T12:06:19.863Z,93.63
2023-03-31T12:08:59.669Z,95.39
2023-03-31T12:11:47.148Z,94.51
2023-03-31T12:14:46.903Z,92.82
2023-03-31T12:17:18.316Z,92.14
2023-03-31T12:19:52.694Z,91.27
2023-03-31T12:22:22.639Z,87.53
2023-03-31T12:24:51.559Z,88.13
2023-03-31T12:27:28.110Z,87.49
2023-03-31T12:29:59.388Z,87.26
2023-03-31T12:32:36.454Z,86.37
2023-03-31T12:35:22.709Z,85.49
2023-03-31T12:38:26.867Z,86.57
2023-03-31T12:41:29.635Z,85.65
2023-03-31T12:44:17.442Z,84.37
2023-03-31T12:47:18.600Z,83.92
2023-03-31T12:49:55.857Z,84.27
2023-03-31T12:52:48.696Z,84.82
2023-03-31T12:55:37.743Z,84.74
2023-03-31T12:58:23.159Z,85.23
2023-03-31T13:01:21.618Z,86.58
2023-03-31T13:04:27.286Z,85.26
2023-03-31T13:07:00.025Z,84.26
2023-03-31T13:09:42.742Z,84.19
2023-03-31T13:12:19.569Z,84.82
2023-03-31T13:14:51.838Z,84.60
2023-03-31T13:17:31.283Z,85.52
2023-03-31T13:20:40.583Z,84.27
2023-03-31T13:23:19.770Z,83.98
2023-03-31T13:26:06.934Z,84.53
2023-03-31T13:28:37.796Z,85.50
2023-03-31T13:31:08.184Z,85.91
2023-03-31T13:33:44.626Z,86.75
2023-03-31T13:36:26.823Z,85.64
2023-03-31T13:39:27.907Z,85.54
2023-03-31T13:42:03.792Z,85.14
2023-03-31T13:44:54.083Z,85.84
2023-03-31T13:47:46.952Z,85.88
2023-03-31T13:51:01.086Z,85.44
2023-03-31T13:53:54.590Z,87.76
2023-03-31T13:56:51.945Z,87.88
2023-03-31T13:59:42.495Z,90.11
2023-03-31T14:02:30.847Z,88.84
2023-03-31T14:05:18.117Z,88.99
2023-03-31T14:07:50.975Z,91.03
2023-03-31T14:10:32.945Z,93.53
2023-03-31T14:13:09.949Z,97.20
2023-03-31T14:15:58.759Z,98.05
2023-03-31T14:18:33.498Z,97.87
2023-03-31T14:21:03.269Z,97.37
2023-03-31T14:23:38.617Z,98.03
2023-03-31T14:26:34.899Z,97.47
2023-03-31T14:29:23.338Z,100.00
2023-03-31T14:32:32.628Z,99.92
2023-03-31T14:35:28.984Z,100.00
2023-03-31T14:37:57.380Z,100.00
2023-03-31T14:40:25.530Z,100.00
2023-03-31T14:42:53.252Z,99.78
2023-03-31T14:45:25.602Z,96.53
2023-03-31T14:48:09.475Z,94.28
2023-03-31T14:50:37.034Z,92.86
2023-03-31T14:53:05.431Z,91.93
2023-03-31T14:55:49.261Z,90.72
2023-03-31T14:58:46.032Z,89.30
2023-03-31T15:01:18.788Z,91.13
2023-03-31T15:03:47.311Z,91.17
2023-03-31T15:06:15.831Z,90.94
2023-03-31T15:08:43.599Z,92.14
2023-03-31T15:11:19.572Z,94.08
2023-03-31T15:14:04.534Z,95.49
2023-03-31T15:16:45.103Z,98.42
2023-03-31T15:19:35.760Z,99.93
2023-03-31T15:22:14.264Z,100.00
2023-03-31T15:24:41.819Z,100.00
2023-03-31T15:27:38.354Z,100.00
2023-03-31T15:30:15.634Z,100.00
2023-03-31T15:32:43.507Z,100.00
2023-03-31T15:35:25.712Z,100.00
2023-03-31T15:37:56.412Z,100.00
2023-03-31T15:40:29.482Z,100.00
2023-03-31T15:43:24.576Z,100.00
2023-03-31T15:45:53.857Z,100.00
2023-03-31T15:48:34.772Z,100.00
2023-03-31T15:51:20.880Z,100.00
2023-03-31T15:53:54.884Z,100.00
2023-03-31T15:56:32.458Z,100.00
2023-03-31T15:59:05.944Z,100.00
2023-03-31T16:01:38.955Z,100.00
2023-03-31T16:04:13.226Z,100.00
2023-03-31T16:07:01.951Z,100.00
2023-03-31T16:10:01.956Z,100.00
2023-03-31T16:12:43.956Z,100.00
2023-03-31T16:15:14.695Z,100.00
2023-03-31T16:17:52.902Z,99.36
2023-03-31T16:20:25.783Z,98.39
2023-03-31T16:22:56.663Z,96.67
2023-03-31T16:25:27.882Z,95.80
2023-03-31T16:27:58.964Z,94.55
2023-03-31T16:30:39.578Z,94.76
2023-03-31T16:33:13.026Z,93.85
2023-03-31T16:35:49.243Z,92.85
2023-03-31T16:38:17.327Z,92.63
2023-03-31T16:40:50.907Z,91.73
2023-03-31T16:43:19.101Z,92.72
2023-03-31T16:45:49.238Z,91.79
2023-03-31T16:48:19.276Z,91.41
2023-03-31T16:50:54.394Z,92.88
2023-03-31T16:53:34.025Z,93.44
2023-03-31T16:56:01.807Z,91.22
2023-03-31T16:58:29.557Z,90.31
2023-03-31T17:00:57.961Z,89.28
2023-03-31T17:03:26.100Z,88.28
2023-03-31T17:05:59.234Z,87.23
2023-03-31T17:08:28.044Z,86.95
2023-03-31T17:11:17.086Z,86.30
2023-03-31T17:13:44.923Z,84.93
2023-03-31T17:16:22.234Z,85.46
2023-03-31T17:18:56.649Z,84.01
2023-03-31T17:21:24.806Z,83.98
2023-03-31T17:23:52.442Z,83.98
2023-03-31T17:26:20.099Z,84.71
2023-03-31T17:28:47.473Z,84.83
2023-03-31T17:31:18.515Z,83.70
2023-03-31T17:33:46.321Z,84.22
2023-03-31T17:36:15.269Z,84.13
2023-03-31T17:38:43.155Z,85.31
2023-03-31T17:41:13.384Z,84.69
2023-03-31T17:43:44.518Z,85.23
2023-03-31T17:46:12.650Z,84.71
2023-03-31T17:48:40.998Z,83.86
2023-03-31T17:51:15.373Z,82.46
2023-03-31T17:53:47.452Z,82.85
2023-03-31T17:56:15.683Z,83.40
2023-03-31T17:58:43.255Z,83.55
2023-03-31T18:01:12.021Z,83.72
2023-03-31T18:03:39.521Z,83.62
2023-03-31T18:06:11.486Z,84.61
2023-03-31T18:08:40.630Z,84.03
2023-03-31T18:11:08.769Z,84.57
2023-03-31T18:13:37.191Z,85.97
2023-03-31T18:16:06.111Z,86.85
2023-03-31T18:18:33.603Z,86.58
2023-03-31T18:21:08.939Z,86.26
2023-03-31T18:23:37.625Z,86.32
2023-03-31T18:26:14.390Z,86.98
2023-03-31T18:28:41.978Z,87.49
2023-03-31T18:31:10.194Z,87.49
2023-03-31T18:33:38.299Z,87.86
2023-03-31T18:36:07.284Z,88.41
2023-03-31T18:38:37.047Z,89.52
2023-03-31T18:41:04.996Z,90.41
2023-03-31T18:43:33.345Z,91.04
2023-03-31T18:46:04.941Z,92.79
2023-03-31T18:48:33.187Z,94.87
2023-03-31T18:51:01.264Z,96.18
2023-03-31T18:53:30.222Z,97.96
2023-03-31T18:55:59.137Z,100.00
2023-03-31T18:58:29.477Z,100.00
2023-03-31T19:00:57.865Z,100.00
2023-03-31T19:03:27.038Z,100.00
2023-03-31T19:06:05.504Z,100.00
2023-03-31T19:08:33.127Z,100.00
2023-03-31T19:11:27.342Z,100.00
2023-03-31T19:13:56.105Z,100.00
2023-03-31T19:16:27.561Z,100.00
2023-03-31T19:18:55.710Z,100.00
2023-03-31T19:21:23.237Z,100.00
2023-03-31T19:23:50.761Z,100.00
2023-03-31T19:26:19.752Z,100.00
2023-03-31T19:28:48.475Z,100.00
2023-03-31T19:31:16.227Z,100.00
2023-03-31T19:33:43.479Z,100.00
2023-03-31T19:36:11.404Z,100.00
2023-03-31T19:38:38.888Z,100.00
2023-03-31T19:41:07.453Z,100.00
2023-03-31T19:43:34.915Z,100.00
2023-03-31T19:46:04.810Z,100.00
2023-03-31T19:48:34.037Z,100.00
2023-03-31T19:51:07.355Z,100.00
2023-03-31T19:53:37.390Z,100.00
2023-03-31T19:56:10.868Z,100.00
2023-03-31T19:58:38.852Z,100.00
2023-03-31T20:01:12.266Z,100.00
2023-03-31T20:03:39.755Z,100.00
2023-03-31T20:06:14.046Z,100.00
2023-03-31T20:08:43.058Z,99.67
2023-03-31T20:11:13.479Z,97.77
2023-03-31T20:13:42.755Z,97.58
2023-03-31T20:16:14.241Z,97.83
2023-03-31T20:18:43.672Z,97.79
2023-03-31T20:21:15.578Z,98.51
2023-03-31T20:23:43.652Z,99.00
2023-03-31T20:26:14.124Z,98.52
2023-03-31T20:28:42.076Z,98.55
2023-03-31T20:31:11.769Z,98.84
2023-03-31T20:33:39.782Z,99.53
2023-03-31T20:36:11.029Z,99.97
2023-03-31T20:38:39.548Z,100.00
2023-03-31T20:41:07.822Z,100.00
2023-03-31T20:43:36.079Z,100.00
2023-03-31T20:46:05.356Z,100.00
2023-03-31T20:48:40.041Z,100.00
2023-03-31T20:51:10.316Z,100.00
2023-03-31T20:53:43.992Z,100.00
2023-03-31T20:56:14.848Z,100.00
2023-03-31T20:58:44.234Z,100.00
2023-03-31T21:01:13.440Z,100.00
2023-03-31T21:03:41.603Z,100.00
2023-03-31T21:06:12.151Z,100.00
2023-03-31T21:08:41.711Z,100.00
2023-03-31T21:11:09.925Z,100.00
2023-03-31T21:13:37.314Z,99.68
2023-03-31T21:16:05.092Z,97.81
2023-03-31T21:18:37.284Z,96.54
2023-03-31T21:21:12.346Z,95.39
2023-03-31T21:23:39.827Z,93.51
2023-03-31T21:26:09.517Z,93.08
2023-03-31T21:28:38.405Z,92.33
2023-03-31T21:31:15.008Z,92.09
2023-03-31T21:33:44.170Z,91.66
2023-03-31T21:36:15.162Z,90.80
2023-03-31T21:38:42.995Z,90.49
2023-03-31T21:41:15.325Z,90.66
2023-03-31T21:43:43.598Z,90.14
2023-03-31T21:46:19.707Z,90.48
2023-03-31T21:48:48.897Z,90.39
2023-03-31T21:51:17.725Z,89.71
2023-03-31T21:53:45.202Z,89.96
2023-03-31T21:56:12.568Z,89.38
2023-03-31T21:58:40.068Z,89.01
2023-03-31T22:01:08.533Z,88.65
2023-03-31T22:03:36.792Z,88.39
2023-03-31T22:06:09.468Z,87.49
2023-03-31T22:08:38.826Z,86.14
2023-03-31T22:11:08.640Z,87.31
2023-03-31T22:13:37.018Z,87.31
2023-03-31T22:16:05.272Z,87.60
2023-03-31T22:18:32.696Z,86.69
2023-03-31T22:21:01.017Z,87.01
2023-03-31T22:23:28.545Z,88.28
2023-03-31T22:25:56.126Z,88.14
2023-03-31T22:28:23.610Z,87.38
2023-03-31T22:30:51.098Z,86.55
2023-03-31T22:33:18.508Z,86.96
2023-03-31T22:35:45.994Z,87.57
2023-03-31T22:38:14.050Z,87.29
2023-03-31T22:40:41.421Z,86.64
2023-03-31T22:43:08.973Z,86.35
2023-03-31T22:45:38.121Z,86.72
2023-03-31T22:48:07.285Z,86.42
2023-03-31T22:50:34.721Z,86.26
2023-03-31T22:53:02.429Z,86.87
2023-03-31T22:55:30.211Z,86.89
2023-03-31T22:57:57.714Z,87.25
2023-03-31T23:00:25.071Z,87.62
2023-03-31T23:02:52.414Z,86.81
2023-03-31T23:05:19.843Z,86.53
2023-03-31T23:07:47.550Z,86.53
2023-03-31T23:10:14.872Z,87.20
2023-03-31T23:12:42.917Z,86.49
2023-03-31T23:15:10.959Z,85.41
2023-03-31T23:17:38.495Z,85.67
2023-03-31T23:20:06.611Z,85.91
2023-03-31T23:22:34.399Z,84.07
2023-03-31T23:25:01.970Z,84.42
2023-03-31T23:27:29.359Z,84.50
2023-03-31T23:29:56.673Z,84.06
2023-03-31T23:32:24.055Z,83.83
2023-03-31T23:34:51.523Z,84.62
2023-03-31T23:37:19.049Z,84.27
2023-03-31T23:39:46.468Z,84.84
2023-03-31T23:42:16.226Z,84.09
2023-03-31T23:44:44.194Z,83.47
2023-03-31T23:47:11.710Z,83.70
2023-03-31T23:49:39.084Z,84.13
2023-03-31T23:52:06.556Z,84.34
2023-03-31T23:54:33.967Z,84.27
2023-03-31T23:57:01.552Z,83.39
2023-03-31T23:59:28.908Z,83.97
